sensor_id;sensor_type;location;lat;lon;timestamp;P1;durP1;ratioP1;P2;durP2;ratioP2
82387;SDS011;72027;47.420;9.310;2023-12-14T00:01:44;4.15;;;1.25;;
82387;SDS011;72027;47.420;9.310;2023-12-14T00:04:14;6.70;;;1.95;;
82387;SDS011;72027;47.420;9.310;2023-12-14T00:06:42;5.95;;;1.25;;
82387;SDS011;72027;47.420;9.310;2023-12-14T00:09:10;8.55;;;1.30;;
82387;SDS011;72027;47.420;9.310;2023-12-14T00:11:38;2.90;;;1.42;;
82387;SDS011;72027;47.420;9.310;2023-12-14T00:14:06;7.90;;;1.45;;
82387;SDS011;72027;47.420;9.310;2023-12-14T00:16:35;6.10;;;1.25;;
82387;SDS011;72027;47.420;9.310;2023-12-14T00:19:03;3.33;;;0.82;;
82387;SDS011;72027;47.420;9.310;2023-12-14T00:21:31;5.18;;;1.10;;
82387;SDS011;72027;47.420;9.310;2023-12-14T00:23:59;4.55;;;1.20;;
82387;SDS011;72027;47.420;9.310;2023-12-14T00:26:26;7.00;;;1.40;;
82387;SDS011;72027;47.420;9.310;2023-12-14T00:28:54;6.60;;;1.92;;
82387;SDS011;72027;47.420;9.310;2023-12-14T00:31:26;3.40;;;1.15;;
82387;SDS011;72027;47.420;9.310;2023-12-14T00:33:55;7.63;;;2.25;;
82387;SDS011;72027;47.420;9.310;2023-12-14T00:36:23;10.40;;;2.58;;
82387;SDS011;72027;47.420;9.310;2023-12-14T00:38:50;11.88;;;2.17;;
82387;SDS011;72027;47.420;9.310;2023-12-14T00:41:18;10.55;;;3.65;;
82387;SDS011;72027;47.420;9.310;2023-12-14T00:43:46;10.73;;;3.60;;
82387;SDS011;72027;47.420;9.310;2023-12-14T00:46:14;11.55;;;4.55;;
82387;SDS011;72027;47.420;9.310;2023-12-14T00:48:42;10.05;;;4.45;;
82387;SDS011;72027;47.420;9.310;2023-12-14T00:51:11;36.92;;;13.18;;
82387;SDS011;72027;47.420;9.310;2023-12-14T00:53:38;29.30;;;11.88;;
82387;SDS011;72027;47.420;9.310;2023-12-14T00:56:07;30.92;;;11.93;;
82387;SDS011;72027;47.420;9.310;2023-12-14T00:58:35;25.15;;;13.57;;
82387;SDS011;72027;47.420;9.310;2023-12-14T01:01:03;32.70;;;15.48;;
82387;SDS011;72027;47.420;9.310;2023-12-14T01:03:31;36.42;;;17.95;;
82387;SDS011;72027;47.420;9.310;2023-12-14T01:05:59;49.50;;;22.83;;
82387;SDS011;72027;47.420;9.310;2023-12-14T01:08:28;55.25;;;24.30;;
82387;SDS011;72027;47.420;9.310;2023-12-14T01:10:56;47.38;;;23.20;;
82387;SDS011;72027;47.420;9.310;2023-12-14T01:13:24;47.97;;;23.65;;
82387;SDS011;72027;47.420;9.310;2023-12-14T01:15:51;43.80;;;20.92;;
82387;SDS011;72027;47.420;9.310;2023-12-14T01:18:19;32.83;;;17.08;;
82387;SDS011;72027;47.420;9.310;2023-12-14T01:20:47;25.20;;;13.95;;
82387;SDS011;72027;47.420;9.310;2023-12-14T01:23:15;26.15;;;11.32;;
82387;SDS011;72027;47.420;9.310;2023-12-14T01:25:44;20.13;;;9.48;;
82387;SDS011;72027;47.420;9.310;2023-12-14T01:28:12;16.15;;;8.15;;
82387;SDS011;72027;47.420;9.310;2023-12-14T01:30:40;8.57;;;4.40;;
82387;SDS011;72027;47.420;9.310;2023-12-14T01:33:08;7.85;;;4.07;;
82387;SDS011;72027;47.420;9.310;2023-12-14T01:35:36;5.55;;;3.25;;
82387;SDS011;72027;47.420;9.310;2023-12-14T01:38:03;3.42;;;1.67;;
82387;SDS011;72027;47.420;9.310;2023-12-14T01:40:32;0.50;;;0.50;;
82387;SDS011;72027;47.420;9.310;2023-12-14T01:43:07;0.40;;;0.40;;
82387;SDS011;72027;47.420;9.310;2023-12-14T01:45:36;1.40;;;0.73;;
82387;SDS011;72027;47.420;9.310;2023-12-14T01:48:04;0.68;;;0.57;;
82387;SDS011;72027;47.420;9.310;2023-12-14T01:50:32;1.40;;;0.40;;
82387;SDS011;72027;47.420;9.310;2023-12-14T01:53:00;1.85;;;0.60;;
82387;SDS011;72027;47.420;9.310;2023-12-14T01:55:28;0.40;;;0.40;;
82387;SDS011;72027;47.420;9.310;2023-12-14T01:57:56;0.63;;;0.30;;
82387;SDS011;72027;47.420;9.310;2023-12-14T02:00:27;0.80;;;0.52;;
82387;SDS011;72027;47.420;9.310;2023-12-14T02:03:03;1.08;;;0.50;;
82387;SDS011;72027;47.420;9.310;2023-12-14T02:05:31;0.63;;;0.60;;
82387;SDS011;72027;47.420;9.310;2023-12-14T02:07:59;4.40;;;0.50;;
82387;SDS011;72027;47.420;9.310;2023-12-14T02:10:27;0.20;;;0.20;;
82387;SDS011;72027;47.420;9.310;2023-12-14T02:12:55;0.47;;;0.43;;
82387;SDS011;72027;47.420;9.310;2023-12-14T02:15:22;0.52;;;0.43;;
82387;SDS011;72027;47.420;9.310;2023-12-14T02:17:52;0.63;;;0.50;;
82387;SDS011;72027;47.420;9.310;2023-12-14T02:20:19;0.45;;;0.40;;
82387;SDS011;72027;47.420;9.310;2023-12-14T02:22:52;0.60;;;0.60;;
82387;SDS011;72027;47.420;9.310;2023-12-14T02:25:20;0.73;;;0.57;;
82387;SDS011;72027;47.420;9.310;2023-12-14T02:27:49;0.70;;;0.55;;
82387;SDS011;72027;47.420;9.310;2023-12-14T02:30:17;0.60;;;0.40;;
82387;SDS011;72027;47.420;9.310;2023-12-14T02:32:46;1.48;;;0.60;;
82387;SDS011;72027;47.420;9.310;2023-12-14T02:35:14;0.80;;;0.50;;
82387;SDS011;72027;47.420;9.310;2023-12-14T02:37:41;1.00;;;0.80;;
82387;SDS011;72027;47.420;9.310;2023-12-14T02:40:11;0.25;;;0.25;;
82387;SDS011;72027;47.420;9.310;2023-12-14T02:42:39;1.52;;;0.63;;
82387;SDS011;72027;47.420;9.310;2023-12-14T02:45:07;2.20;;;0.85;;
82387;SDS011;72027;47.420;9.310;2023-12-14T02:47:36;1.08;;;0.70;;
82387;SDS011;72027;47.420;9.310;2023-12-14T02:50:04;2.20;;;1.05;;
82387;SDS011;72027;47.420;9.310;2023-12-14T02:52:32;1.50;;;0.80;;
82387;SDS011;72027;47.420;9.310;2023-12-14T02:55:00;1.00;;;0.80;;
82387;SDS011;72027;47.420;9.310;2023-12-14T02:57:30;1.27;;;0.52;;
82387;SDS011;72027;47.420;9.310;2023-12-14T02:59:57;3.53;;;1.15;;
82387;SDS011;72027;47.420;9.310;2023-12-14T03:02:25;1.65;;;0.68;;
82387;SDS011;72027;47.420;9.310;2023-12-14T03:04:53;1.38;;;1.15;;
82387;SDS011;72027;47.420;9.310;2023-12-14T03:07:21;1.65;;;0.80;;
82387;SDS011;72027;47.420;9.310;2023-12-14T03:09:49;0.40;;;0.40;;
82387;SDS011;72027;47.420;9.310;2023-12-14T03:12:16;2.30;;;0.93;;
82387;SDS011;72027;47.420;9.310;2023-12-14T03:14:45;0.50;;;0.50;;
82387;SDS011;72027;47.420;9.310;2023-12-14T03:17:13;0.55;;;0.55;;
82387;SDS011;72027;47.420;9.310;2023-12-14T03:19:42;0.50;;;0.50;;
82387;SDS011;72027;47.420;9.310;2023-12-14T03:22:10;0.43;;;0.43;;
82387;SDS011;72027;47.420;9.310;2023-12-14T03:24:38;1.65;;;0.50;;
82387;SDS011;72027;47.420;9.310;2023-12-14T03:27:06;0.60;;;0.55;;
82387;SDS011;72027;47.420;9.310;2023-12-14T03:29:34;0.45;;;0.40;;
82387;SDS011;72027;47.420;9.310;2023-12-14T03:32:03;0.65;;;0.60;;
82387;SDS011;72027;47.420;9.310;2023-12-14T03:34:32;0.35;;;0.35;;
82387;SDS011;72027;47.420;9.310;2023-12-14T03:36:59;0.52;;;0.50;;
82387;SDS011;72027;47.420;9.310;2023-12-14T03:39:27;0.40;;;0.40;;
82387;SDS011;72027;47.420;9.310;2023-12-14T03:41:55;0.40;;;0.35;;
82387;SDS011;72027;47.420;9.310;2023-12-14T03:44:23;0.32;;;0.32;;
82387;SDS011;72027;47.420;9.310;2023-12-14T03:46:51;0.40;;;0.40;;
82387;SDS011;72027;47.420;9.310;2023-12-14T03:49:21;0.50;;;0.35;;
82387;SDS011;72027;47.420;9.310;2023-12-14T03:51:49;0.30;;;0.30;;
82387;SDS011;72027;47.420;9.310;2023-12-14T03:54:17;0.75;;;0.40;;
82387;SDS011;72027;47.420;9.310;2023-12-14T03:56:45;0.35;;;0.30;;
82387;SDS011;72027;47.420;9.310;2023-12-14T03:59:13;0.55;;;0.40;;
82387;SDS011;72027;47.420;9.310;2023-12-14T04:01:40;0.43;;;0.43;;
82387;SDS011;72027;47.420;9.310;2023-12-14T04:04:08;0.50;;;0.40;;
82387;SDS011;72027;47.420;9.310;2023-12-14T04:06:37;0.40;;;0.40;;
82387;SDS011;72027;47.420;9.310;2023-12-14T04:09:05;1.77;;;0.70;;
82387;SDS011;72027;47.420;9.310;2023-12-14T04:11:33;0.85;;;0.40;;
82387;SDS011;72027;47.420;9.310;2023-12-14T04:14:00;2.78;;;0.50;;
82387;SDS011;72027;47.420;9.310;2023-12-14T04:16:28;1.73;;;0.50;;
82387;SDS011;72027;47.420;9.310;2023-12-14T04:18:56;2.22;;;0.82;;
82387;SDS011;72027;47.420;9.310;2023-12-14T04:21:24;2.50;;;1.23;;
82387;SDS011;72027;47.420;9.310;2023-12-14T04:23:53;2.08;;;0.57;;
82387;SDS011;72027;47.420;9.310;2023-12-14T04:26:21;0.47;;;0.40;;
82387;SDS011;72027;47.420;9.310;2023-12-14T04:28:48;1.08;;;0.60;;
82387;SDS011;72027;47.420;9.310;2023-12-14T04:31:16;1.50;;;0.73;;
82387;SDS011;72027;47.420;9.310;2023-12-14T04:33:44;0.82;;;0.75;;
82387;SDS011;72027;47.420;9.310;2023-12-14T04:36:12;1.10;;;1.00;;
82387;SDS011;72027;47.420;9.310;2023-12-14T04:38:40;1.00;;;0.60;;
82387;SDS011;72027;47.420;9.310;2023-12-14T04:41:09;0.65;;;0.47;;
82387;SDS011;72027;47.420;9.310;2023-12-14T04:43:36;1.15;;;0.65;;
82387;SDS011;72027;47.420;9.310;2023-12-14T04:46:04;1.08;;;0.70;;
82387;SDS011;72027;47.420;9.310;2023-12-14T04:48:32;0.75;;;0.75;;
82387;SDS011;72027;47.420;9.310;2023-12-14T04:51:00;1.45;;;0.73;;
82387;SDS011;72027;47.420;9.310;2023-12-14T04:53:28;1.63;;;0.93;;
82387;SDS011;72027;47.420;9.310;2023-12-14T04:55:56;1.85;;;0.85;;
82387;SDS011;72027;47.420;9.310;2023-12-14T04:58:25;1.10;;;0.70;;
82387;SDS011;72027;47.420;9.310;2023-12-14T05:00:52;2.80;;;0.80;;
82387;SDS011;72027;47.420;9.310;2023-12-14T05:03:20;2.70;;;1.00;;
82387;SDS011;72027;47.420;9.310;2023-12-14T05:05:48;3.92;;;0.98;;
82387;SDS011;72027;47.420;9.310;2023-12-14T05:08:16;1.58;;;1.25;;
82387;SDS011;72027;47.420;9.310;2023-12-14T05:10:44;1.70;;;1.23;;
82387;SDS011;72027;47.420;9.310;2023-12-14T05:13:11;1.50;;;1.00;;
82387;SDS011;72027;47.420;9.310;2023-12-14T05:15:40;1.20;;;1.00;;
82387;SDS011;72027;47.420;9.310;2023-12-14T05:18:08;2.47;;;0.80;;
82387;SDS011;72027;47.420;9.310;2023-12-14T05:20:36;2.10;;;1.25;;
82387;SDS011;72027;47.420;9.310;2023-12-14T05:23:04;1.27;;;0.90;;
82387;SDS011;72027;47.420;9.310;2023-12-14T05:25:32;2.25;;;0.85;;
82387;SDS011;72027;47.420;9.310;2023-12-14T05:27:59;1.27;;;1.08;;
82387;SDS011;72027;47.420;9.310;2023-12-14T05:30:27;2.22;;;1.30;;
82387;SDS011;72027;47.420;9.310;2023-12-14T05:32:56;1.95;;;1.13;;
82387;SDS011;72027;47.420;9.310;2023-12-14T05:35:24;2.53;;;1.45;;
82387;SDS011;72027;47.420;9.310;2023-12-14T05:37:52;2.63;;;1.33;;
82387;SDS011;72027;47.420;9.310;2023-12-14T05:40:20;1.80;;;1.25;;
82387;SDS011;72027;47.420;9.310;2023-12-14T05:42:47;2.78;;;1.33;;
82387;SDS011;72027;47.420;9.310;2023-12-14T05:45:15;1.60;;;0.93;;
82387;SDS011;72027;47.420;9.310;2023-12-14T05:47:44;1.35;;;1.00;;
82387;SDS011;72027;47.420;9.310;2023-12-14T05:50:13;1.70;;;1.00;;
82387;SDS011;72027;47.420;9.310;2023-12-14T05:52:41;0.70;;;0.70;;
82387;SDS011;72027;47.420;9.310;2023-12-14T05:55:09;1.50;;;0.90;;
82387;SDS011;72027;47.420;9.310;2023-12-14T05:57:37;2.38;;;0.93;;
82387;SDS011;72027;47.420;9.310;2023-12-14T06:00:06;1.95;;;1.73;;
82387;SDS011;72027;47.420;9.310;2023-12-14T06:02:34;2.08;;;1.25;;
82387;SDS011;72027;47.420;9.310;2023-12-14T06:05:05;2.47;;;1.15;;
82387;SDS011;72027;47.420;9.310;2023-12-14T06:07:36;2.75;;;1.42;;
82387;SDS011;72027;47.420;9.310;2023-12-14T06:10:04;2.50;;;1.48;;
82387;SDS011;72027;47.420;9.310;2023-12-14T06:12:32;1.33;;;1.00;;
82387;SDS011;72027;47.420;9.310;2023-12-14T06:15:00;1.77;;;1.23;;
82387;SDS011;72027;47.420;9.310;2023-12-14T06:17:28;1.98;;;1.48;;
82387;SDS011;72027;47.420;9.310;2023-12-14T06:19:56;1.48;;;1.38;;
82387;SDS011;72027;47.420;9.310;2023-12-14T06:22:24;1.38;;;1.15;;
82387;SDS011;72027;47.420;9.310;2023-12-14T06:24:54;1.75;;;1.13;;
82387;SDS011;72027;47.420;9.310;2023-12-14T06:27:22;1.20;;;0.98;;
82387;SDS011;72027;47.420;9.310;2023-12-14T06:29:52;0.98;;;0.88;;
82387;SDS011;72027;47.420;9.310;2023-12-14T06:32:20;1.25;;;0.75;;
82387;SDS011;72027;47.420;9.310;2023-12-14T06:34:48;1.98;;;1.10;;
82387;SDS011;72027;47.420;9.310;2023-12-14T06:37:16;1.55;;;1.10;;
82387;SDS011;72027;47.420;9.310;2023-12-14T06:39:44;4.20;;;1.65;;
82387;SDS011;72027;47.420;9.310;2023-12-14T06:42:14;6.90;;;1.98;;
82387;SDS011;72027;47.420;9.310;2023-12-14T06:44:41;2.47;;;1.50;;
82387;SDS011;72027;47.420;9.310;2023-12-14T06:47:09;3.33;;;1.33;;
82387;SDS011;72027;47.420;9.310;2023-12-14T06:49:37;3.53;;;1.63;;
82387;SDS011;72027;47.420;9.310;2023-12-14T06:52:06;3.83;;;1.60;;
82387;SDS011;72027;47.420;9.310;2023-12-14T06:54:34;5.57;;;1.60;;
82387;SDS011;72027;47.420;9.310;2023-12-14T06:57:02;2.60;;;1.55;;
82387;SDS011;72027;47.420;9.310;2023-12-14T06:59:31;4.15;;;1.90;;
82387;SDS011;72027;47.420;9.310;2023-12-14T07:01:59;2.90;;;1.80;;
82387;SDS011;72027;47.420;9.310;2023-12-14T07:04:27;3.17;;;1.30;;
82387;SDS011;72027;47.420;9.310;2023-12-14T07:06:54;1.67;;;1.20;;
82387;SDS011;72027;47.420;9.310;2023-12-14T07:09:22;1.77;;;1.10;;
82387;SDS011;72027;47.420;9.310;2023-12-14T07:11:50;3.05;;;1.10;;
82387;SDS011;72027;47.420;9.310;2023-12-14T07:14:17;1.73;;;1.10;;
82387;SDS011;72027;47.420;9.310;2023-12-14T07:16:49;1.35;;;1.10;;
82387;SDS011;72027;47.420;9.310;2023-12-14T07:19:17;2.10;;;0.85;;
82387;SDS011;72027;47.420;9.310;2023-12-14T07:21:44;1.13;;;0.98;;
82387;SDS011;72027;47.420;9.310;2023-12-14T07:24:12;1.73;;;1.02;;
82387;SDS011;72027;47.420;9.310;2023-12-14T07:26:40;1.00;;;0.90;;
82387;SDS011;72027;47.420;9.310;2023-12-14T07:29:08;1.13;;;0.93;;
82387;SDS011;72027;47.420;9.310;2023-12-14T07:31:35;1.17;;;1.08;;
82387;SDS011;72027;47.420;9.310;2023-12-14T07:34:05;0.80;;;0.80;;
82387;SDS011;72027;47.420;9.310;2023-12-14T07:36:32;0.88;;;0.82;;
82387;SDS011;72027;47.420;9.310;2023-12-14T07:39:00;1.67;;;0.95;;
82387;SDS011;72027;47.420;9.310;2023-12-14T07:41:30;0.70;;;0.70;;
82387;SDS011;72027;47.420;9.310;2023-12-14T07:43:58;0.60;;;0.60;;
82387;SDS011;72027;47.420;9.310;2023-12-14T07:46:29;1.27;;;0.80;;
82387;SDS011;72027;47.420;9.310;2023-12-14T07:48:57;0.88;;;0.80;;
82387;SDS011;72027;47.420;9.310;2023-12-14T07:51:29;0.88;;;0.75;;
82387;SDS011;72027;47.420;9.310;2023-12-14T07:53:57;1.55;;;1.08;;
82387;SDS011;72027;47.420;9.310;2023-12-14T07:56:25;1.02;;;0.93;;
82387;SDS011;72027;47.420;9.310;2023-12-14T07:58:54;1.88;;;1.00;;
82387;SDS011;72027;47.420;9.310;2023-12-14T08:01:21;1.35;;;1.05;;
82387;SDS011;72027;47.420;9.310;2023-12-14T08:03:49;1.25;;;1.10;;
82387;SDS011;72027;47.420;9.310;2023-12-14T08:06:17;1.15;;;1.05;;
82387;SDS011;72027;47.420;9.310;2023-12-14T08:08:46;1.63;;;1.00;;
82387;SDS011;72027;47.420;9.310;2023-12-14T08:11:14;1.08;;;0.93;;
82387;SDS011;72027;47.420;9.310;2023-12-14T08:13:42;1.00;;;0.80;;
82387;SDS011;72027;47.420;9.310;2023-12-14T08:16:10;1.33;;;1.17;;
82387;SDS011;72027;47.420;9.310;2023-12-14T08:18:38;1.52;;;1.17;;
82387;SDS011;72027;47.420;9.310;2023-12-14T08:21:07;2.97;;;1.10;;
82387;SDS011;72027;47.420;9.310;2023-12-14T08:23:36;0.80;;;0.80;;
82387;SDS011;72027;47.420;9.310;2023-12-14T08:26:06;1.92;;;1.33;;
82387;SDS011;72027;47.420;9.310;2023-12-14T08:28:34;2.10;;;1.67;;
82387;SDS011;72027;47.420;9.310;2023-12-14T08:31:02;2.08;;;1.50;;
82387;SDS011;72027;47.420;9.310;2023-12-14T08:33:30;3.20;;;1.55;;
82387;SDS011;72027;47.420;9.310;2023-12-14T08:35:58;2.35;;;1.75;;
82387;SDS011;72027;47.420;9.310;2023-12-14T08:38:26;2.55;;;1.65;;
82387;SDS011;72027;47.420;9.310;2023-12-14T08:40:54;2.53;;;1.73;;
82387;SDS011;72027;47.420;9.310;2023-12-14T08:43:25;2.00;;;1.80;;
82387;SDS011;72027;47.420;9.310;2023-12-14T08:45:53;3.83;;;1.85;;
82387;SDS011;72027;47.420;9.310;2023-12-14T08:48:21;3.55;;;1.88;;
82387;SDS011;72027;47.420;9.310;2023-12-14T08:50:49;2.83;;;1.70;;
82387;SDS011;72027;47.420;9.310;2023-12-14T08:53:17;2.53;;;2.03;;
82387;SDS011;72027;47.420;9.310;2023-12-14T08:55:44;1.65;;;1.45;;
82387;SDS011;72027;47.420;9.310;2023-12-14T08:58:12;1.42;;;1.33;;
82387;SDS011;72027;47.420;9.310;2023-12-14T09:00:41;1.77;;;1.60;;
82387;SDS011;72027;47.420;9.310;2023-12-14T09:03:09;3.50;;;2.00;;
82387;SDS011;72027;47.420;9.310;2023-12-14T09:05:37;2.97;;;1.75;;
82387;SDS011;72027;47.420;9.310;2023-12-14T09:08:08;2.10;;;1.90;;
82387;SDS011;72027;47.420;9.310;2023-12-14T09:10:36;2.60;;;1.88;;
82387;SDS011;72027;47.420;9.310;2023-12-14T09:13:04;2.90;;;1.83;;
82387;SDS011;72027;47.420;9.310;2023-12-14T09:15:32;3.80;;;2.08;;
82387;SDS011;72027;47.420;9.310;2023-12-14T09:18:02;2.97;;;1.80;;
82387;SDS011;72027;47.420;9.310;2023-12-14T09:20:30;4.10;;;1.65;;
82387;SDS011;72027;47.420;9.310;2023-12-14T09:22:58;5.43;;;2.30;;
82387;SDS011;72027;47.420;9.310;2023-12-14T09:25:25;3.03;;;1.90;;
82387;SDS011;72027;47.420;9.310;2023-12-14T09:27:53;2.30;;;1.92;;
82387;SDS011;72027;47.420;9.310;2023-12-14T09:30:21;3.15;;;1.70;;
82387;SDS011;72027;47.420;9.310;2023-12-14T09:32:49;2.50;;;2.10;;
82387;SDS011;72027;47.420;9.310;2023-12-14T09:35:18;4.03;;;1.90;;
82387;SDS011;72027;47.420;9.310;2023-12-14T09:37:46;2.92;;;2.10;;
82387;SDS011;72027;47.420;9.310;2023-12-14T09:40:14;2.47;;;1.92;;
82387;SDS011;72027;47.420;9.310;2023-12-14T09:42:43;2.83;;;1.75;;
82387;SDS011;72027;47.420;9.310;2023-12-14T09:45:11;3.97;;;2.25;;
82387;SDS011;72027;47.420;9.310;2023-12-14T09:47:38;3.10;;;1.73;;
82387;SDS011;72027;47.420;9.310;2023-12-14T09:50:09;2.03;;;1.70;;
82387;SDS011;72027;47.420;9.310;2023-12-14T09:52:38;3.38;;;1.98;;
82387;SDS011;72027;47.420;9.310;2023-12-14T09:55:06;2.22;;;1.40;;
82387;SDS011;72027;47.420;9.310;2023-12-14T09:57:34;3.05;;;1.77;;
82387;SDS011;72027;47.420;9.310;2023-12-14T10:00:02;1.65;;;1.30;;
82387;SDS011;72027;47.420;9.310;2023-12-14T10:02:34;2.78;;;1.88;;
82387;SDS011;72027;47.420;9.310;2023-12-14T10:05:02;4.53;;;1.80;;
82387;SDS011;72027;47.420;9.310;2023-12-14T10:07:31;2.38;;;1.15;;
82387;SDS011;72027;47.420;9.310;2023-12-14T10:10:10;1.10;;;1.00;;
82387;SDS011;72027;47.420;9.310;2023-12-14T10:12:50;3.40;;;1.83;;
82387;SDS011;72027;47.420;9.310;2023-12-14T10:15:19;1.77;;;0.85;;
82387;SDS011;72027;47.420;9.310;2023-12-14T10:17:50;2.90;;;1.35;;
82387;SDS011;72027;47.420;9.310;2023-12-14T10:20:20;4.78;;;1.05;;
82387;SDS011;72027;47.420;9.310;2023-12-14T10:22:49;1.63;;;1.10;;
82387;SDS011;72027;47.420;9.310;2023-12-14T10:25:19;2.17;;;1.40;;
82387;SDS011;72027;47.420;9.310;2023-12-14T10:27:47;2.67;;;1.13;;
82387;SDS011;72027;47.420;9.310;2023-12-14T10:30:15;4.20;;;1.05;;
82387;SDS011;72027;47.420;9.310;2023-12-14T10:32:42;3.80;;;1.33;;
82387;SDS011;72027;47.420;9.310;2023-12-14T10:35:11;2.58;;;1.67;;
82387;SDS011;72027;47.420;9.310;2023-12-14T10:37:39;2.35;;;1.63;;
82387;SDS011;72027;47.420;9.310;2023-12-14T10:40:07;3.22;;;2.20;;
82387;SDS011;72027;47.420;9.310;2023-12-14T10:42:38;6.45;;;2.17;;
82387;SDS011;72027;47.420;9.310;2023-12-14T10:45:10;3.67;;;2.53;;
82387;SDS011;72027;47.420;9.310;2023-12-14T10:47:44;3.58;;;2.55;;
82387;SDS011;72027;47.420;9.310;2023-12-14T10:50:13;5.95;;;3.88;;
82387;SDS011;72027;47.420;9.310;2023-12-14T10:52:41;6.88;;;4.25;;
82387;SDS011;72027;47.420;9.310;2023-12-14T10:55:11;7.97;;;4.00;;
82387;SDS011;72027;47.420;9.310;2023-12-14T10:57:46;6.57;;;4.93;;
82387;SDS011;72027;47.420;9.310;2023-12-14T11:00:16;5.97;;;4.28;;
82387;SDS011;72027;47.420;9.310;2023-12-14T11:02:45;6.40;;;4.22;;
82387;SDS011;72027;47.420;9.310;2023-12-14T11:05:14;5.43;;;4.32;;
82387;SDS011;72027;47.420;9.310;2023-12-14T11:07:50;4.95;;;3.90;;
82387;SDS011;72027;47.420;9.310;2023-12-14T11:10:20;7.00;;;5.20;;
82387;SDS011;72027;47.420;9.310;2023-12-14T11:12:57;4.50;;;3.78;;
82387;SDS011;72027;47.420;9.310;2023-12-14T11:15:29;4.73;;;3.67;;
82387;SDS011;72027;47.420;9.310;2023-12-14T11:20:57;4.57;;;3.70;;
82387;SDS011;72027;47.420;9.310;2023-12-14T11:23:28;5.10;;;3.50;;
82387;SDS011;72027;47.420;9.310;2023-12-14T11:25:58;6.35;;;3.45;;
82387;SDS011;72027;47.420;9.310;2023-12-14T11:28:31;3.67;;;3.38;;
82387;SDS011;72027;47.420;9.310;2023-12-14T11:31:00;4.57;;;3.90;;
82387;SDS011;72027;47.420;9.310;2023-12-14T11:33:32;4.18;;;3.47;;
82387;SDS011;72027;47.420;9.310;2023-12-14T11:36:05;3.88;;;2.88;;
82387;SDS011;72027;47.420;9.310;2023-12-14T11:38:35;4.78;;;3.78;;
82387;SDS011;72027;47.420;9.310;2023-12-14T11:41:03;3.72;;;3.30;;
82387;SDS011;72027;47.420;9.310;2023-12-14T11:43:39;7.65;;;3.88;;
82387;SDS011;72027;47.420;9.310;2023-12-14T11:46:08;4.47;;;3.38;;
82387;SDS011;72027;47.420;9.310;2023-12-14T11:48:36;4.90;;;3.38;;
82387;SDS011;72027;47.420;9.310;2023-12-14T11:51:04;3.47;;;3.08;;
82387;SDS011;72027;47.420;9.310;2023-12-14T11:53:32;3.72;;;3.05;;
82387;SDS011;72027;47.420;9.310;2023-12-14T11:56:04;4.65;;;3.78;;
82387;SDS011;72027;47.420;9.310;2023-12-14T11:58:32;3.28;;;2.70;;
82387;SDS011;72027;47.420;9.310;2023-12-14T12:01:11;5.10;;;3.40;;
82387;SDS011;72027;47.420;9.310;2023-12-14T12:03:40;2.88;;;2.30;;
82387;SDS011;72027;47.420;9.310;2023-12-14T12:06:08;4.82;;;2.85;;
82387;SDS011;72027;47.420;9.310;2023-12-14T12:08:40;5.18;;;2.90;;
82387;SDS011;72027;47.420;9.310;2023-12-14T12:11:09;4.30;;;2.70;;
82387;SDS011;72027;47.420;9.310;2023-12-14T12:13:37;2.83;;;2.42;;
82387;SDS011;72027;47.420;9.310;2023-12-14T12:16:05;2.40;;;2.15;;
82387;SDS011;72027;47.420;9.310;2023-12-14T12:18:34;3.28;;;2.97;;
82387;SDS011;72027;47.420;9.310;2023-12-14T12:21:04;3.53;;;3.05;;
82387;SDS011;72027;47.420;9.310;2023-12-14T12:23:34;3.35;;;3.05;;
82387;SDS011;72027;47.420;9.310;2023-12-14T12:26:02;4.70;;;3.03;;
82387;SDS011;72027;47.420;9.310;2023-12-14T12:28:31;11.63;;;4.13;;
82387;SDS011;72027;47.420;9.310;2023-12-14T12:30:58;6.80;;;2.50;;
82387;SDS011;72027;47.420;9.310;2023-12-14T12:33:27;2.97;;;2.33;;
82387;SDS011;72027;47.420;9.310;2023-12-14T12:35:56;2.90;;;2.25;;
82387;SDS011;72027;47.420;9.310;2023-12-14T12:38:24;4.43;;;2.55;;
82387;SDS011;72027;47.420;9.310;2023-12-14T12:40:52;3.65;;;2.55;;
82387;SDS011;72027;47.420;9.310;2023-12-14T12:43:24;2.97;;;2.28;;
82387;SDS011;72027;47.420;9.310;2023-12-14T12:45:55;2.75;;;2.45;;
82387;SDS011;72027;47.420;9.310;2023-12-14T12:48:24;2.88;;;1.85;;
82387;SDS011;72027;47.420;9.310;2023-12-14T12:50:53;2.88;;;2.08;;
82387;SDS011;72027;47.420;9.310;2023-12-14T12:53:22;4.90;;;2.05;;
82387;SDS011;72027;47.420;9.310;2023-12-14T12:55:50;3.42;;;2.38;;
82387;SDS011;72027;47.420;9.310;2023-12-14T12:58:18;6.38;;;2.67;;
82387;SDS011;72027;47.420;9.310;2023-12-14T13:00:45;3.88;;;2.95;;
82387;SDS011;72027;47.420;9.310;2023-12-14T13:03:13;3.95;;;3.17;;
82387;SDS011;72027;47.420;9.310;2023-12-14T13:05:41;3.97;;;2.40;;
82387;SDS011;72027;47.420;9.310;2023-12-14T13:08:09;4.25;;;2.60;;
82387;SDS011;72027;47.420;9.310;2023-12-14T13:10:40;2.85;;;2.45;;
82387;SDS011;72027;47.420;9.310;2023-12-14T13:13:08;2.83;;;2.30;;
82387;SDS011;72027;47.420;9.310;2023-12-14T13:15:37;3.90;;;2.25;;
82387;SDS011;72027;47.420;9.310;2023-12-14T13:18:05;2.53;;;2.00;;
82387;SDS011;72027;47.420;9.310;2023-12-14T13:20:33;4.25;;;2.08;;
82387;SDS011;72027;47.420;9.310;2023-12-14T13:23:01;3.55;;;1.90;;
82387;SDS011;72027;47.420;9.310;2023-12-14T13:25:29;2.33;;;1.90;;
82387;SDS011;72027;47.420;9.310;2023-12-14T13:27:58;4.80;;;2.13;;
82387;SDS011;72027;47.420;9.310;2023-12-14T13:30:26;2.78;;;2.35;;
82387;SDS011;72027;47.420;9.310;2023-12-14T13:32:54;2.63;;;1.70;;
82387;SDS011;72027;47.420;9.310;2023-12-14T13:35:22;1.95;;;1.70;;
82387;SDS011;72027;47.420;9.310;2023-12-14T13:37:51;1.50;;;1.40;;
82387;SDS011;72027;47.420;9.310;2023-12-14T13:40:19;1.98;;;1.83;;
82387;SDS011;72027;47.420;9.310;2023-12-14T13:42:46;2.33;;;1.85;;
82387;SDS011;72027;47.420;9.310;2023-12-14T13:45:21;3.47;;;1.98;;
82387;SDS011;72027;47.420;9.310;2023-12-14T13:47:49;3.20;;;2.28;;
82387;SDS011;72027;47.420;9.310;2023-12-14T13:50:17;2.25;;;2.05;;
82387;SDS011;72027;47.420;9.310;2023-12-14T13:52:45;3.92;;;1.92;;
82387;SDS011;72027;47.420;9.310;2023-12-14T13:55:13;2.85;;;1.88;;
82387;SDS011;72027;47.420;9.310;2023-12-14T13:57:41;2.60;;;1.98;;
82387;SDS011;72027;47.420;9.310;2023-12-14T14:00:09;3.30;;;1.80;;
82387;SDS011;72027;47.420;9.310;2023-12-14T14:02:39;2.33;;;1.73;;
82387;SDS011;72027;47.420;9.310;2023-12-14T14:05:07;4.57;;;2.30;;
82387;SDS011;72027;47.420;9.310;2023-12-14T14:07:35;2.80;;;1.95;;
82387;SDS011;72027;47.420;9.310;2023-12-14T14:10:04;3.88;;;1.95;;
82387;SDS011;72027;47.420;9.310;2023-12-14T14:12:32;3.70;;;2.63;;
82387;SDS011;72027;47.420;9.310;2023-12-14T14:15:00;6.95;;;3.90;;
82387;SDS011;72027;47.420;9.310;2023-12-14T14:17:28;4.25;;;2.88;;
82387;SDS011;72027;47.420;9.310;2023-12-14T14:19:57;3.83;;;2.63;;
82387;SDS011;72027;47.420;9.310;2023-12-14T14:22:25;3.25;;;2.38;;
82387;SDS011;72027;47.420;9.310;2023-12-14T14:24:53;4.22;;;2.75;;
82387;SDS011;72027;47.420;9.310;2023-12-14T14:27:21;2.95;;;2.00;;
82387;SDS011;72027;47.420;9.310;2023-12-14T14:29:49;4.18;;;1.92;;
82387;SDS011;72027;47.420;9.310;2023-12-14T14:32:20;3.70;;;2.53;;
82387;SDS011;72027;47.420;9.310;2023-12-14T14:34:48;2.30;;;2.10;;
82387;SDS011;72027;47.420;9.310;2023-12-14T14:37:17;2.85;;;2.55;;
82387;SDS011;72027;47.420;9.310;2023-12-14T14:39:45;3.70;;;2.17;;
82387;SDS011;72027;47.420;9.310;2023-12-14T14:42:12;2.53;;;2.17;;
82387;SDS011;72027;47.420;9.310;2023-12-14T14:44:40;2.05;;;1.83;;
82387;SDS011;72027;47.420;9.310;2023-12-14T14:47:08;3.17;;;2.60;;
82387;SDS011;72027;47.420;9.310;2023-12-14T14:49:36;2.35;;;1.90;;
82387;SDS011;72027;47.420;9.310;2023-12-14T14:52:04;2.35;;;1.90;;
82387;SDS011;72027;47.420;9.310;2023-12-14T14:54:33;3.80;;;2.40;;
82387;SDS011;72027;47.420;9.310;2023-12-14T14:57:01;2.58;;;2.10;;